sensor_id;sensor_type;location;lat;lon;timestamp;P1;durP1;ratioP1;P2;durP2;ratioP2
61204;SDS011;47068;55.780;37.520;2024-01-06T00:02:03;440.58;;;114.22;;
61204;SDS011;47068;55.780;37.520;2024-01-06T00:04:29;484.50;;;126.83;;
61204;SDS011;47068;55.780;37.520;2024-01-06T00:06:55;402.37;;;110.97;;
61204;SDS011;47068;55.780;37.520;2024-01-06T00:09:20;499.30;;;171.20;;
61204;SDS011;47068;55.780;37.520;2024-01-06T00:11:45;330.07;;;91.87;;
61204;SDS011;47068;55.780;37.520;2024-01-06T00:14:11;306.85;;;91.55;;
61204;SDS011;47068;55.780;37.520;2024-01-06T00:16:36;301.02;;;90.90;;
61204;SDS011;47068;55.780;37.520;2024-01-06T00:19:02;293.95;;;88.97;;
61204;SDS011;47068;55.780;37.520;2024-01-06T00:21:27;320.92;;;88.50;;
61204;SDS011;47068;55.780;37.520;2024-01-06T00:23:53;322.95;;;88.47;;
61204;SDS011;47068;55.780;37.520;2024-01-06T00:26:21;319.33;;;92.00;;
61204;SDS011;47068;55.780;37.520;2024-01-06T00:28:46;343.08;;;96.30;;
61204;SDS011;47068;55.780;37.520;2024-01-06T00:31:14;389.98;;;110.68;;
61204;SDS011;47068;55.780;37.520;2024-01-06T00:33:42;393.52;;;104.85;;
61204;SDS011;47068;55.780;37.520;2024-01-06T00:36:07;410.25;;;109.45;;
61204;SDS011;47068;55.780;37.520;2024-01-06T00:41:00;397.90;;;107.72;;
61204;SDS011;47068;55.780;37.520;2024-01-06T00:43:26;397.30;;;113.87;;
61204;SDS011;47068;55.780;37.520;2024-01-06T00:48:17;377.53;;;111.23;;
61204;SDS011;47068;55.780;37.520;2024-01-06T00:50:42;371.45;;;108.20;;
61204;SDS011;47068;55.780;37.520;2024-01-06T00:53:08;390.75;;;105.95;;
61204;SDS011;47068;55.780;37.520;2024-01-06T00:55:33;481.07;;;188.00;;
61204;SDS011;47068;55.780;37.520;2024-01-06T00:57:59;358.27;;;101.65;;
61204;SDS011;47068;55.780;37.520;2024-01-06T01:02:52;329.35;;;98.22;;
61204;SDS011;47068;55.780;37.520;2024-01-06T01:05:18;368.75;;;106.63;;
61204;SDS011;47068;55.780;37.520;2024-01-06T01:07:43;375.70;;;107.90;;
61204;SDS011;47068;55.780;37.520;2024-01-06T01:10:09;480.13;;;161.80;;
61204;SDS011;47068;55.780;37.520;2024-01-06T01:12:35;433.67;;;112.60;;
61204;SDS011;47068;55.780;37.520;2024-01-06T01:15:00;372.88;;;109.10;;
61204;SDS011;47068;55.780;37.520;2024-01-06T01:17:26;392.33;;;110.00;;
61204;SDS011;47068;55.780;37.520;2024-01-06T01:19:51;495.95;;;133.38;;
61204;SDS011;47068;55.780;37.520;2024-01-06T01:22:17;417.20;;;112.88;;
61204;SDS011;47068;55.780;37.520;2024-01-06T01:24:42;446.00;;;117.72;;
61204;SDS011;47068;55.780;37.520;2024-01-06T01:27:08;504.13;;;168.93;;
61204;SDS011;47068;55.780;37.520;2024-01-06T01:29:34;561.37;;;171.53;;
61204;SDS011;47068;55.780;37.520;2024-01-06T01:31:59;571.27;;;179.17;;
61204;SDS011;47068;55.780;37.520;2024-01-06T01:34:25;413.77;;;118.47;;
61204;SDS011;47068;55.780;37.520;2024-01-06T01:36:50;420.50;;;113.55;;
61204;SDS011;47068;55.780;37.520;2024-01-06T01:39:16;408.75;;;116.07;;
61204;SDS011;47068;55.780;37.520;2024-01-06T01:41:42;421.48;;;113.82;;
61204;SDS011;47068;55.780;37.520;2024-01-06T01:44:07;514.58;;;151.82;;
61204;SDS011;47068;55.780;37.520;2024-01-06T01:46:33;509.63;;;151.38;;
61204;SDS011;47068;55.780;37.520;2024-01-06T01:48:59;456.23;;;125.50;;
61204;SDS011;47068;55.780;37.520;2024-01-06T01:51:29;505.38;;;137.45;;
61204;SDS011;47068;55.780;37.520;2024-01-06T01:53:59;552.30;;;174.40;;
61204;SDS011;47068;55.780;37.520;2024-01-06T01:56:27;506.15;;;144.27;;
61204;SDS011;47068;55.780;37.520;2024-01-06T01:58:59;474.35;;;124.47;;
61204;SDS011;47068;55.780;37.520;2024-01-06T02:01:27;482.73;;;136.20;;
61204;SDS011;47068;55.780;37.520;2024-01-06T02:03:53;523.43;;;133.83;;
61204;SDS011;47068;55.780;37.520;2024-01-06T02:06:18;452.75;;;124.43;;
61204;SDS011;47068;55.780;37.520;2024-01-06T02:08:44;491.95;;;143.52;;
61204;SDS011;47068;55.780;37.520;2024-01-06T02:11:09;405.87;;;110.97;;
61204;SDS011;47068;55.780;37.520;2024-01-06T02:13:35;431.75;;;118.15;;
61204;SDS011;47068;55.780;37.520;2024-01-06T02:16:03;471.27;;;127.93;;
61204;SDS011;47068;55.780;37.520;2024-01-06T02:18:30;522.95;;;136.23;;
61204;SDS011;47068;55.780;37.520;2024-01-06T02:21:00;453.67;;;117.90;;
61204;SDS011;47068;55.780;37.520;2024-01-06T02:23:26;542.78;;;152.88;;
61204;SDS011;47068;55.780;37.520;2024-01-06T02:25:52;540.08;;;147.60;;
61204;SDS011;47068;55.780;37.520;2024-01-06T02:28:18;415.70;;;121.00;;
61204;SDS011;47068;55.780;37.520;2024-01-06T02:30:43;429.67;;;111.68;;
61204;SDS011;47068;55.780;37.520;2024-01-06T02:33:09;484.17;;;135.85;;
61204;SDS011;47068;55.780;37.520;2024-01-06T02:35:34;579.25;;;143.23;;
61204;SDS011;47068;55.780;37.520;2024-01-06T02:38:00;444.85;;;124.45;;
61204;SDS011;47068;55.780;37.520;2024-01-06T02:40:26;437.10;;;112.57;;
61204;SDS011;47068;55.780;37.520;2024-01-06T02:42:51;408.95;;;113.13;;
61204;SDS011;47068;55.780;37.520;2024-01-06T02:45:17;409.13;;;112.10;;
61204;SDS011;47068;55.780;37.520;2024-01-06T02:47:42;430.90;;;112.22;;
61204;SDS011;47068;55.780;37.520;2024-01-06T02:50:08;461.73;;;118.03;;
61204;SDS011;47068;55.780;37.520;2024-01-06T02:52:33;493.63;;;127.80;;
61204;SDS011;47068;55.780;37.520;2024-01-06T02:54:59;472.33;;;124.82;;
61204;SDS011;47068;55.780;37.520;2024-01-06T02:57:26;457.95;;;122.07;;
61204;SDS011;47068;55.780;37.520;2024-01-06T02:59:52;497.73;;;139.07;;
61204;SDS011;47068;55.780;37.520;2024-01-06T03:02:17;403.48;;;110.82;;
61204;SDS011;47068;55.780;37.520;2024-01-06T03:04:43;389.75;;;107.05;;
61204;SDS011;47068;55.780;37.520;2024-01-06T03:07:08;406.65;;;105.93;;
61204;SDS011;47068;55.780;37.520;2024-01-06T03:09:34;412.73;;;107.50;;
61204;SDS011;47068;55.780;37.520;2024-01-06T03:11:59;410.08;;;111.70;;
61204;SDS011;47068;55.780;37.520;2024-01-06T03:14:25;413.45;;;109.22;;
61204;SDS011;47068;55.780;37.520;2024-01-06T03:16:50;410.55;;;108.25;;
61204;SDS011;47068;55.780;37.520;2024-01-06T03:19:16;427.85;;;110.60;;
61204;SDS011;47068;55.780;37.520;2024-01-06T03:21:41;423.50;;;115.65;;
61204;SDS011;47068;55.780;37.520;2024-01-06T03:24:07;424.60;;;116.22;;
61204;SDS011;47068;55.780;37.520;2024-01-06T03:26:34;448.65;;;114.78;;
61204;SDS011;47068;55.780;37.520;2024-01-06T03:28:59;458.83;;;116.28;;
61204;SDS011;47068;55.780;37.520;2024-01-06T03:31:27;444.58;;;112.70;;
61204;SDS011;47068;55.780;37.520;2024-01-06T03:33:52;445.42;;;116.28;;
61204;SDS011;47068;55.780;37.520;2024-01-06T03:36:19;441.38;;;113.68;;
61204;SDS011;47068;55.780;37.520;2024-01-06T03:38:44;486.27;;;157.60;;
61204;SDS011;47068;55.780;37.520;2024-01-06T03:41:10;431.95;;;118.35;;
61204;SDS011;47068;55.780;37.520;2024-01-06T03:43:35;457.00;;;116.38;;
61204;SDS011;47068;55.780;37.520;2024-01-06T03:46:01;452.58;;;120.07;;
61204;SDS011;47068;55.780;37.520;2024-01-06T03:48:26;463.60;;;123.43;;
61204;SDS011;47068;55.780;37.520;2024-01-06T03:50:52;424.83;;;120.55;;
61204;SDS011;47068;55.780;37.520;2024-01-06T03:53:17;391.38;;;109.03;;
61204;SDS011;47068;55.780;37.520;2024-01-06T03:55:43;402.70;;;110.35;;
61204;SDS011;47068;55.780;37.520;2024-01-06T03:58:08;414.17;;;109.15;;
61204;SDS011;47068;55.780;37.520;2024-01-06T04:00:34;400.85;;;107.30;;
61204;SDS011;47068;55.780;37.520;2024-01-06T04:02:59;428.05;;;110.88;;
61204;SDS011;47068;55.780;37.520;2024-01-06T04:05:25;466.02;;;136.65;;
61204;SDS011;47068;55.780;37.520;2024-01-06T04:07:50;476.08;;;119.50;;
61204;SDS011;47068;55.780;37.520;2024-01-06T04:10:16;546.33;;;190.45;;
61204;SDS011;47068;55.780;37.520;2024-01-06T04:12:41;371.98;;;97.28;;
61204;SDS011;47068;55.780;37.520;2024-01-06T04:15:07;379.50;;;98.75;;
61204;SDS011;47068;55.780;37.520;2024-01-06T04:17:33;368.45;;;103.05;;
61204;SDS011;47068;55.780;37.520;2024-01-06T04:19:58;364.83;;;102.97;;
61204;SDS011;47068;55.780;37.520;2024-01-06T04:22:24;373.98;;;103.72;;
61204;SDS011;47068;55.780;37.520;2024-01-06T04:24:49;368.58;;;103.03;;
61204;SDS011;47068;55.780;37.520;2024-01-06T04:27:15;395.08;;;104.05;;
61204;SDS011;47068;55.780;37.520;2024-01-06T04:29:40;381.67;;;102.10;;
61204;SDS011;47068;55.780;37.520;2024-01-06T04:32:06;379.45;;;101.35;;
61204;SDS011;47068;55.780;37.520;2024-01-06T04:34:32;400.70;;;111.80;;
61204;SDS011;47068;55.780;37.520;2024-01-06T04:36:58;398.95;;;111.18;;
61204;SDS011;47068;55.780;37.520;2024-01-06T04:39:23;432.48;;;112.15;;
61204;SDS011;47068;55.780;37.520;2024-01-06T04:41:49;575.17;;;176.40;;
61204;SDS011;47068;55.780;37.520;2024-01-06T04:44:15;403.45;;;114.05;;
61204;SDS011;47068;55.780;37.520;2024-01-06T04:46:41;425.08;;;113.32;;
61204;SDS011;47068;55.780;37.520;2024-01-06T04:49:06;432.60;;;115.43;;
61204;SDS011;47068;55.780;37.520;2024-01-06T04:51:31;530.08;;;178.18;;
61204;SDS011;47068;55.780;37.520;2024-01-06T04:53:57;407.70;;;114.30;;
61204;SDS011;47068;55.780;37.520;2024-01-06T04:56:22;418.13;;;116.75;;
61204;SDS011;47068;55.780;37.520;2024-01-06T04:58:48;444.90;;;123.95;;
61204;SDS011;47068;55.780;37.520;2024-01-06T05:01:13;576.50;;;207.82;;
61204;SDS011;47068;55.780;37.520;2024-01-06T05:03:39;397.75;;;110.03;;
61204;SDS011;47068;55.780;37.520;2024-01-06T05:06:04;426.33;;;120.10;;
61204;SDS011;47068;55.780;37.520;2024-01-06T05:08:30;504.40;;;154.45;;
61204;SDS011;47068;55.780;37.520;2024-01-06T05:10:56;598.00;;;201.35;;
61204;SDS011;47068;55.780;37.520;2024-01-06T05:13:21;414.98;;;116.15;;
61204;SDS011;47068;55.780;37.520;2024-01-06T05:15:47;530.33;;;144.33;;
61204;SDS011;47068;55.780;37.520;2024-01-06T05:18:12;449.20;;;116.10;;
61204;SDS011;47068;55.780;37.520;2024-01-06T05:20:38;470.98;;;127.85;;
61204;SDS011;47068;55.780;37.520;2024-01-06T05:23:05;464.80;;;126.55;;
61204;SDS011;47068;55.780;37.520;2024-01-06T05:25:31;508.88;;;143.93;;
61204;SDS011;47068;55.780;37.520;2024-01-06T05:27:57;425.20;;;112.13;;
61204;SDS011;47068;55.780;37.520;2024-01-06T05:30:22;419.20;;;112.72;;
61204;SDS011;47068;55.780;37.520;2024-01-06T05:32:48;395.00;;;113.97;;
61204;SDS011;47068;55.780;37.520;2024-01-06T05:35:13;403.05;;;107.88;;
61204;SDS011;47068;55.780;37.520;2024-01-06T05:37:41;368.38;;;101.28;;
61204;SDS011;47068;55.780;37.520;2024-01-06T05:40:07;364.65;;;104.30;;
61204;SDS011;47068;55.780;37.520;2024-01-06T05:42:32;362.02;;;103.85;;
61204;SDS011;47068;55.780;37.520;2024-01-06T05:44:58;363.65;;;103.97;;
61204;SDS011;47068;55.780;37.520;2024-01-06T05:47:23;353.80;;;101.63;;
61204;SDS011;47068;55.780;37.520;2024-01-06T05:49:49;360.30;;;100.10;;
61204;SDS011;47068;55.780;37.520;2024-01-06T05:52:15;344.13;;;99.88;;
61204;SDS011;47068;55.780;37.520;2024-01-06T05:54:40;348.93;;;100.77;;
61204;SDS011;47068;55.780;37.520;2024-01-06T05:57:07;370.27;;;99.63;;
61204;SDS011;47068;55.780;37.520;2024-01-06T05:59:33;357.95;;;103.65;;
61204;SDS011;47068;55.780;37.520;2024-01-06T06:01:59;355.83;;;99.32;;
61204;SDS011;47068;55.780;37.520;2024-01-06T06:04:25;355.45;;;99.85;;
61204;SDS011;47068;55.780;37.520;2024-01-06T06:06:50;355.50;;;100.05;;
61204;SDS011;47068;55.780;37.520;2024-01-06T06:09:16;348.92;;;102.45;;
61204;SDS011;47068;55.780;37.520;2024-01-06T06:11:41;354.90;;;103.38;;
61204;SDS011;47068;55.780;37.520;2024-01-06T06:14:08;358.17;;;103.00;;
61204;SDS011;47068;55.780;37.520;2024-01-06T06:16:33;370.42;;;101.78;;
61204;SDS011;47068;55.780;37.520;2024-01-06T06:18:59;362.98;;;100.40;;
61204;SDS011;47068;55.780;37.520;2024-01-06T06:21:24;359.42;;;105.25;;
61204;SDS011;47068;55.780;37.520;2024-01-06T06:23:50;388.85;;;105.07;;
61204;SDS011;47068;55.780;37.520;2024-01-06T06:26:16;363.05;;;97.75;;
61204;SDS011;47068;55.780;37.520;2024-01-06T06:28:41;389.20;;;104.50;;
61204;SDS011;47068;55.780;37.520;2024-01-06T06:31:07;392.13;;;104.65;;
61204;SDS011;47068;55.780;37.520;2024-01-06T06:33:32;385.58;;;102.40;;
61204;SDS011;47068;55.780;37.520;2024-01-06T06:35:58;372.95;;;101.93;;
61204;SDS011;47068;55.780;37.520;2024-01-06T06:38:25;361.20;;;103.75;;
61204;SDS011;47068;55.780;37.520;2024-01-06T06:40:51;373.40;;;101.10;;
61204;SDS011;47068;55.780;37.520;2024-01-06T06:43:16;367.58;;;103.60;;
61204;SDS011;47068;55.780;37.520;2024-01-06T06:45:42;372.80;;;98.97;;
61204;SDS011;47068;55.780;37.520;2024-01-06T06:48:07;373.65;;;100.50;;
61204;SDS011;47068;55.780;37.520;2024-01-06T06:50:33;384.15;;;102.07;;
61204;SDS011;47068;55.780;37.520;2024-01-06T06:52:59;372.13;;;107.32;;
61204;SDS011;47068;55.780;37.520;2024-01-06T06:55:25;372.42;;;101.80;;
61204;SDS011;47068;55.780;37.520;2024-01-06T06:57:52;379.83;;;103.00;;
61204;SDS011;47068;55.780;37.520;2024-01-06T07:00:18;379.77;;;103.55;;
61204;SDS011;47068;55.780;37.520;2024-01-06T07:02:43;380.38;;;101.80;;
61204;SDS011;47068;55.780;37.520;2024-01-06T07:05:09;377.02;;;107.05;;
61204;SDS011;47068;55.780;37.520;2024-01-06T07:07:34;397.65;;;105.35;;
61204;SDS011;47068;55.780;37.520;2024-01-06T07:10:00;392.35;;;104.95;;
61204;SDS011;47068;55.780;37.520;2024-01-06T07:12:28;405.30;;;107.43;;
61204;SDS011;47068;55.780;37.520;2024-01-06T07:14:53;389.90;;;107.97;;
61204;SDS011;47068;55.780;37.520;2024-01-06T07:17:19;390.90;;;108.18;;
61204;SDS011;47068;55.780;37.520;2024-01-06T07:19:44;403.92;;;114.47;;
61204;SDS011;47068;55.780;37.520;2024-01-06T07:22:10;397.65;;;112.43;;
61204;SDS011;47068;55.780;37.520;2024-01-06T07:24:35;402.27;;;112.50;;
61204;SDS011;47068;55.780;37.520;2024-01-06T07:27:01;413.40;;;107.75;;
61204;SDS011;47068;55.780;37.520;2024-01-06T07:29:28;405.50;;;113.97;;
61204;SDS011;47068;55.780;37.520;2024-01-06T07:31:54;420.17;;;109.53;;
61204;SDS011;47068;55.780;37.520;2024-01-06T07:34:19;450.08;;;122.22;;
61204;SDS011;47068;55.780;37.520;2024-01-06T07:36:45;436.35;;;113.90;;
61204;SDS011;47068;55.780;37.520;2024-01-06T07:39:10;475.73;;;128.75;;
61204;SDS011;47068;55.780;37.520;2024-01-06T07:41:36;496.17;;;127.68;;
61204;SDS011;47068;55.780;37.520;2024-01-06T07:44:01;490.20;;;128.57;;
61204;SDS011;47068;55.780;37.520;2024-01-06T07:46:28;507.20;;;148.50;;
61204;SDS011;47068;55.780;37.520;2024-01-06T07:48:54;412.48;;;114.25;;
61204;SDS011;47068;55.780;37.520;2024-01-06T07:51:19;433.63;;;115.63;;
61204;SDS011;47068;55.780;37.520;2024-01-06T07:53:45;430.63;;;118.20;;
61204;SDS011;47068;55.780;37.520;2024-01-06T07:56:11;424.77;;;116.60;;
61204;SDS011;47068;55.780;37.520;2024-01-06T07:58:36;442.83;;;117.80;;
61204;SDS011;47068;55.780;37.520;2024-01-06T08:01:02;445.73;;;119.78;;
61204;SDS011;47068;55.780;37.520;2024-01-06T08:03:27;448.08;;;117.80;;
61204;SDS011;47068;55.780;37.520;2024-01-06T08:05:52;444.27;;;119.97;;
61204;SDS011;47068;55.780;37.520;2024-01-06T08:08:19;465.33;;;125.55;;
61204;SDS011;47068;55.780;37.520;2024-01-06T08:10:45;604.40;;;224.48;;
61204;SDS011;47068;55.780;37.520;2024-01-06T08:13:10;406.00;;;113.35;;
61204;SDS011;47068;55.780;37.520;2024-01-06T08:15:36;392.58;;;105.70;;
61204;SDS011;47068;55.780;37.520;2024-01-06T08:18:01;401.08;;;109.47;;
61204;SDS011;47068;55.780;37.520;2024-01-06T08:20:28;407.53;;;107.70;;
61204;SDS011;47068;55.780;37.520;2024-01-06T08:22:54;388.58;;;106.97;;
61204;SDS011;47068;55.780;37.520;2024-01-06T08:25:20;394.08;;;103.28;;
61204;SDS011;47068;55.780;37.520;2024-01-06T08:27:45;421.85;;;111.22;;
61204;SDS011;47068;55.780;37.520;2024-01-06T08:30:11;394.30;;;107.40;;
61204;SDS011;47068;55.780;37.520;2024-01-06T08:32:37;403.10;;;108.57;;
61204;SDS011;47068;55.780;37.520;2024-01-06T08:35:03;396.05;;;109.40;;
61204;SDS011;47068;55.780;37.520;2024-01-06T08:37:29;395.50;;;106.88;;
61204;SDS011;47068;55.780;37.520;2024-01-06T08:39:55;408.25;;;105.45;;
61204;SDS011;47068;55.780;37.520;2024-01-06T08:42:20;419.88;;;106.47;;
61204;SDS011;47068;55.780;37.520;2024-01-06T08:44:46;420.90;;;113.53;;
61204;SDS011;47068;55.780;37.520;2024-01-06T08:47:12;446.02;;;120.13;;
61204;SDS011;47068;55.780;37.520;2024-01-06T08:49:37;439.70;;;117.25;;
61204;SDS011;47068;55.780;37.520;2024-01-06T08:52:03;442.77;;;112.65;;
61204;SDS011;47068;55.780;37.520;2024-01-06T08:56:56;458.95;;;126.22;;
61204;SDS011;47068;55.780;37.520;2024-01-06T08:59:22;471.17;;;123.60;;
61204;SDS011;47068;55.780;37.520;2024-01-06T09:01:47;473.75;;;119.25;;
61204;SDS011;47068;55.780;37.520;2024-01-06T09:04:13;467.70;;;122.28;;
61204;SDS011;47068;55.780;37.520;2024-01-06T09:06:38;467.25;;;125.85;;
61204;SDS011;47068;55.780;37.520;2024-01-06T09:09:04;520.50;;;134.18;;
61204;SDS011;47068;55.780;37.520;2024-01-06T09:11:30;567.05;;;146.77;;
61204;SDS011;47068;55.780;37.520;2024-01-06T09:13:56;532.92;;;127.53;;
61204;SDS011;47068;55.780;37.520;2024-01-06T09:16:21;525.42;;;126.20;;
61204;SDS011;47068;55.780;37.520;2024-01-06T09:18:47;536.22;;;126.45;;
61204;SDS011;47068;55.780;37.520;2024-01-06T09:23:38;574.60;;;176.83;;
61204;SDS011;47068;55.780;37.520;2024-01-06T09:26:03;486.02;;;126.47;;
61204;SDS011;47068;55.780;37.520;2024-01-06T09:28:29;568.75;;;139.60;;
61204;SDS011;47068;55.780;37.520;2024-01-06T09:30:55;475.17;;;123.95;;
61204;SDS011;47068;55.780;37.520;2024-01-06T09:33:21;604.50;;;162.27;;
61204;SDS011;47068;55.780;37.520;2024-01-06T09:35:47;424.87;;;108.90;;
61204;SDS011;47068;55.780;37.520;2024-01-06T09:38:13;427.13;;;112.15;;
61204;SDS011;47068;55.780;37.520;2024-01-06T09:40:42;452.08;;;114.47;;
61204;SDS011;47068;55.780;37.520;2024-01-06T09:43:09;453.73;;;114.43;;
61204;SDS011;47068;55.780;37.520;2024-01-06T09:45:36;481.13;;;116.40;;
61204;SDS011;47068;55.780;37.520;2024-01-06T09:48:03;491.25;;;121.82;;
61204;SDS011;47068;55.780;37.520;2024-01-06T09:50:40;546.95;;;143.65;;
61204;SDS011;47068;55.780;37.520;2024-01-06T09:53:08;456.53;;;112.53;;
61204;SDS011;47068;55.780;37.520;2024-01-06T09:55:36;463.03;;;118.20;;
61204;SDS011;47068;55.780;37.520;2024-01-06T10:00:28;413.07;;;111.53;;
61204;SDS011;47068;55.780;37.520;2024-01-06T10:02:53;410.38;;;106.55;;
61204;SDS011;47068;55.780;37.520;2024-01-06T10:05:20;412.87;;;109.57;;
61204;SDS011;47068;55.780;37.520;2024-01-06T10:07:46;519.38;;;131.95;;
61204;SDS011;47068;55.780;37.520;2024-01-06T10:10:12;520.80;;;145.48;;
61204;SDS011;47068;55.780;37.520;2024-01-06T10:12:40;469.75;;;121.90;;
61204;SDS011;47068;55.780;37.520;2024-01-06T10:15:07;444.67;;;114.13;;
61204;SDS011;47068;55.780;37.520;2024-01-06T10:17:40;456.97;;;112.87;;
61204;SDS011;47068;55.780;37.520;2024-01-06T10:20:10;458.63;;;117.77;;
61204;SDS011;47068;55.780;37.520;2024-01-06T10:22:37;467.30;;;120.10;;
61204;SDS011;47068;55.780;37.520;2024-01-06T10:25:09;462.20;;;119.10;;
61204;SDS011;47068;55.780;37.520;2024-01-06T10:27:35;462.27;;;118.27;;
61204;SDS011;47068;55.780;37.520;2024-01-06T10:30:02;458.70;;;115.60;;
61204;SDS011;47068;55.780;37.520;2024-01-06T10:32:31;467.90;;;125.07;;
61204;SDS011;47068;55.780;37.520;2024-01-06T10:34:57;490.52;;;128.95;;
61204;SDS011;47068;55.780;37.520;2024-01-06T10:37:24;506.98;;;132.75;;
61204;SDS011;47068;55.780;37.520;2024-01-06T10:40:04;498.85;;;129.60;;
61204;SDS011;47068;55.780;37.520;2024-01-06T10:42:37;479.05;;;124.53;;
61204;SDS011;47068;55.780;37.520;2024-01-06T10:45:08;485.02;;;122.43;;
61204;SDS011;47068;55.780;37.520;2024-01-06T10:47:35;494.92;;;123.30;;
61204;SDS011;47068;55.780;37.520;2024-01-06T10:50:01;492.58;;;131.80;;
61204;SDS011;47068;55.780;37.520;2024-01-06T10:52:27;503.35;;;133.50;;
61204;SDS011;47068;55.780;37.520;2024-01-06T10:54:53;512.67;;;130.40;;
61204;SDS011;47068;55.780;37.520;2024-01-06T10:57:20;519.70;;;136.18;;
61204;SDS011;47068;55.780;37.520;2024-01-06T11:02:14;492.15;;;126.45;;
61204;SDS011;47068;55.780;37.520;2024-01-06T11:04:47;491.02;;;128.00;;
61204;SDS011;47068;55.780;37.520;2024-01-06T11:07:16;487.38;;;132.68;;
61204;SDS011;47068;55.780;37.520;2024-01-06T11:09:46;493.10;;;132.30;;
61204;SDS011;47068;55.780;37.520;2024-01-06T11:12:16;503.15;;;129.82;;
61204;SDS011;47068;55.780;37.520;2024-01-06T11:17:07;491.10;;;128.93;;
61204;SDS011;47068;55.780;37.520;2024-01-06T11:27:17;480.40;;;130.57;;
61204;SDS011;47068;55.780;37.520;2024-01-06T11:29:44;478.63;;;133.18;;
61204;SDS011;47068;55.780;37.520;2024-01-06T11:32:20;483.67;;;133.18;;
61204;SDS011;47068;55.780;37.520;2024-01-06T11:34:50;475.45;;;131.60;;
61204;SDS011;47068;55.780;37.520;2024-01-06T11:37:18;495.98;;;129.35;;
61204;SDS011;47068;55.780;37.520;2024-01-06T11:39:51;497.27;;;129.48;;
61204;SDS011;47068;55.780;37.520;2024-01-06T11:42:18;476.98;;;126.00;;
61204;SDS011;47068;55.780;37.520;2024-01-06T11:44:44;494.98;;;130.10;;
61204;SDS011;47068;55.780;37.520;2024-01-06T11:47:14;476.10;;;128.23;;
61204;SDS011;47068;55.780;37.520;2024-01-06T11:49:43;455.60;;;126.65;;
61204;SDS011;47068;55.780;37.520;2024-01-06T11:52:10;454.30;;;127.63;;
61204;SDS011;47068;55.780;37.520;2024-01-06T11:54:36;455.63;;;125.55;;
61204;SDS011;47068;55.780;37.520;2024-01-06T11:57:03;458.55;;;124.20;;
61204;SDS011;47068;55.780;37.520;2024-01-06T11:59:29;457.27;;;122.93;;
61204;SDS011;47068;55.780;37.520;2024-01-06T12:04:20;445.63;;;122.40;;
61204;SDS011;47068;55.780;37.520;2024-01-06T12:06:47;471.27;;;121.47;;
61204;SDS011;47068;55.780;37.520;2024-01-06T12:09:13;456.80;;;123.90;;
61204;SDS011;47068;55.780;37.520;2024-01-06T12:11:44;472.05;;;128.75;;
61204;SDS011;47068;55.780;37.520;2024-01-06T12:16:36;468.20;;;125.83;;
61204;SDS011;47068;55.780;37.520;2024-01-06T12:19:01;479.30;;;129.68;;
61204;SDS011;47068;55.780;37.520;2024-01-06T12:21:28;506.67;;;134.98;;
61204;SDS011;47068;55.780;37.520;2024-01-06T12:26:45;450.30;;;117.65;;
61204;SDS011;47068;55.780;37.520;2024-01-06T12:29:14;445.92;;;117.38;;
61204;SDS011;47068;55.780;37.520;2024-01-06T12:31:41;449.08;;;117.32;;
61204;SDS011;47068;55.780;37.520;2024-01-06T12:34:09;458.52;;;118.07;;
61204;SDS011;47068;55.780;37.520;2024-01-06T12:36:39;448.58;;;114.55;;
61204;SDS011;47068;55.780;37.520;2024-01-06T12:39:06;447.67;;;114.13;;
61204;SDS011;47068;55.780;37.520;2024-01-06T12:41:38;477.98;;;122.60;;
61204;SDS011;47068;55.780;37.520;2024-01-06T12:44:04;457.45;;;125.65;;
61204;SDS011;47068;55.780;37.520;2024-01-06T12:46:30;458.10;;;122.22;;
61204;SDS011;47068;55.780;37.520;2024-01-06T12:48:56;466.77;;;120.25;;
61204;SDS011;47068;55.780;37.520;2024-01-06T12:51:21;483.27;;;123.57;;
61204;SDS011;47068;55.780;37.520;2024-01-06T12:53:47;472.23;;;132.65;;
61204;SDS011;47068;55.780;37.520;2024-01-06T12:56:13;482.90;;;127.93;;
61204;SDS011;47068;55.780;37.520;2024-01-06T12:58:40;475.13;;;129.38;;
61204;SDS011;47068;55.780;37.520;2024-01-06T13:01:06;482.85;;;123.57;;
61204;SDS011;47068;55.780;37.520;2024-01-06T13:03:32;459.63;;;126.75;;
61204;SDS011;47068;55.780;37.520;2024-01-06T13:05:58;458.10;;;124.32;;
61204;SDS011;47068;55.780;37.520;2024-01-06T13:08:24;459.98;;;122.80;;
61204;SDS011;47068;55.780;37.520;2024-01-06T13:10:50;473.65;;;121.22;;
61204;SDS011;47068;55.780;37.520;2024-01-06T13:13:15;461.50;;;117.10;;
61204;SDS011;47068;55.780;37.520;2024-01-06T13:15:41;458.30;;;119.03;;
61204;SDS011;47068;55.780;37.520;2024-01-06T13:18:07;474.27;;;126.65;;
61204;SDS011;47068;55.780;37.520;2024-01-06T13:20:32;457.30;;;122.78;;
61204;SDS011;47068;55.780;37.520;2024-01-06T13:22:58;455.70;;;123.47;;
61204;SDS011;47068;55.780;37.520;2024-01-06T13:25:23;456.70;;;121.80;;
61204;SDS011;47068;55.780;37.520;2024-01-06T13:27:49;450.45;;;119.72;;
61204;SDS011;47068;55.780;37.520;2024-01-06T13:30:15;460.43;;;121.57;;
61204;SDS011;47068;55.780;37.520;2024-01-06T13:32:41;450.65;;;122.57;;
61204;SDS011;47068;55.780;37.520;2024-01-06T13:35:06;453.23;;;117.38;;
61204;SDS011;47068;55.780;37.520;2024-01-06T13:37:32;449.48;;;118.68;;
61204;SDS011;47068;55.780;37.520;2024-01-06T13:39:58;455.75;;;118.78;;
61204;SDS011;47068;55.780;37.520;2024-01-06T13:42:23;468.17;;;126.75;;
61204;SDS011;47068;55.780;37.520;2024-01-06T13:44:49;457.55;;;119.25;;
61204;SDS011;47068;55.780;37.520;2024-01-06T13:47:15;453.35;;;121.90;;
61204;SDS011;47068;55.780;37.520;2024-01-06T13:49:40;458.95;;;124.03;;
61204;SDS011;47068;55.780;37.520;2024-01-06T13:52:06;471.50;;;122.32;;
61204;SDS011;47068;55.780;37.520;2024-01-06T13:54:35;468.48;;;126.28;;
61204;SDS011;47068;55.780;37.520;2024-01-06T13:57:01;517.72;;;136.43;;
61204;SDS011;47068;55.780;37.520;2024-01-06T13:59:27;502.80;;;134.38;;
61204;SDS011;47068;55.780;37.520;2024-01-06T14:01:53;549.28;;;145.75;;
61204;SDS011;47068;55.780;37.520;2024-01-06T14:04:19;476.13;;;127.90;;
61204;SDS011;47068;55.780;37.520;2024-01-06T14:06:45;539.53;;;132.30;;
61204;SDS011;47068;55.780;37.520;2024-01-06T14:09:12;529.42;;;129.32;;
61204;SDS011;47068;55.780;37.520;2024-01-06T14:11:38;592.58;;;168.48;;
61204;SDS011;47068;55.780;37.520;2024-01-06T14:14:04;655.35;;;227.02;;
61204;SDS011;47068;55.780;37.520;2024-01-06T14:16:30;589.70;;;177.27;;